Terminal Aerodrome Forecast
Issued by NWS Cleveland, OH

Home | Current Version | Previous Version | Graphics & Text | Print | Product List | Glossary Off
Versions: 1 2 3 4 5 6 7 8 9 10 11 12 13 14 15 16 17 18 19

000
FTUS41 KCLE 252320
TAFYNG
TAF
KYNG 252320Z 2600/2624 24004KT 6SM -RA BR SCT008 OVC015
     FM260500 27006KT 5SM BR VCSH OVC008
     FM260800 28006KT 5SM BR VCSH OVC006
     FM261500 28010KT P6SM OVC015
     FM262100 28009KT P6SM SCT025 BKN035=

USA.gov is the U.S. government's official web portal to all federal, state and local government web resources and services.